Time;durP1;ratioP1;P1;durP2;ratioP2;P2;SDS_P1;SDS_P2;PMS_P1;PMS_P2;Temp;Humidity;BMP_temperature;BMP_pressure;BME280_temperature;BME280_humidity;BME280_pressure;Samples;Min_cycle;Max_cycle;Signal;HPM_P1;HPM_P2
2022/09/10 00:00:32;;;;;;;8.40;6.47;;;14.50;99.90;;;;;;5072617;28;20123;-59
2022/09/10 00:02:58;;;;;;;7.90;7.13;;;14.50;99.90;;;;;;5072589;28;20040;-57
2022/09/10 00:05:23;;;;;;;11.77;7.32;;;14.50;99.90;;;;;;5072107;28;20494;-57
2022/09/10 00:07:49;;;;;;;10.00;6.85;;;14.60;99.90;;;;;;5072805;28;20041;-57
2022/09/10 00:10:17;;;;;;;7.30;6.50;;;14.50;99.90;;;;;;5063322;28;20390;-57
2022/09/10 00:12:43;;;;;;;8.98;6.82;;;14.50;99.90;;;;;;5072233;28;20063;-57
2022/09/10 00:15:09;;;;;;;11.07;6.15;;;14.50;99.90;;;;;;5072322;28;20044;-56
2022/09/10 00:17:35;;;;;;;10.45;7.28;;;14.50;99.90;;;;;;5065751;28;20044;-57
2022/09/10 00:20:02;;;;;;;9.23;6.85;;;14.50;99.90;;;;;;5072613;28;20046;-56
2022/09/10 00:22:27;;;;;;;12.60;7.20;;;14.50;99.90;;;;;;5072017;28;20066;-57
2022/09/10 00:24:55;;;;;;;10.15;6.80;;;14.40;99.90;;;;;;5071771;28;20073;-57
2022/09/10 00:27:21;;;;;;;10.07;7.03;;;14.40;99.90;;;;;;5071918;28;20045;-57
2022/09/10 00:29:50;;;;;;;8.95;6.50;;;14.40;99.90;;;;;;5071274;28;20079;-57
2022/09/10 00:32:16;;;;;;;7.93;7.13;;;14.30;99.90;;;;;;5071982;28;20513;-57
2022/09/10 00:34:42;;;;;;;12.38;8.43;;;14.40;99.90;;;;;;5071911;28;20091;-57
2022/09/10 00:37:07;;;;;;;7.75;6.50;;;14.40;99.90;;;;;;5072169;28;20048;-57
2022/09/10 00:39:33;;;;;;;10.95;8.85;;;14.40;99.90;;;;;;5058499;28;20067;-57
2022/09/10 00:41:59;;;;;;;11.73;7.68;;;14.50;99.90;;;;;;5072024;28;20039;-57
2022/09/10 00:44:40;;;;;;;9.27;7.35;;;14.50;99.90;;;;;;5054284;28;20044;-57
2022/09/10 00:47:11;;;;;;;8.63;7.70;;;14.60;99.90;;;;;;5072222;28;20044;-57
2022/09/10 00:49:41;;;;;;;9.57;8.07;;;14.60;99.90;;;;;;5072135;28;20059;-56
2022/09/10 00:52:07;;;;;;;11.50;7.82;;;14.60;99.90;;;;;;5072162;28;20040;-57
2022/09/10 00:54:35;;;;;;;8.88;7.88;;;14.60;99.90;;;;;;5070913;28;20039;-56
2022/09/10 00:57:11;;;;;;;15.65;8.32;;;14.60;99.90;;;;;;5071721;28;20052;-56
2022/09/10 00:59:40;;;;;;;9.88;7.65;;;14.60;99.90;;;;;;5072074;28;20049;-56
2022/09/10 01:02:06;;;;;;;10.65;7.57;;;14.60;99.90;;;;;;5071778;28;20036;-56
2022/09/10 01:04:32;;;;;;;9.18;7.10;;;14.70;99.90;;;;;;5071630;28;20051;-56
2022/09/10 01:06:59;;;;;;;11.40;8.88;;;14.60;99.90;;;;;;5072060;28;20124;-56
2022/09/10 01:09:26;;;;;;;11.73;7.88;;;14.60;99.90;;;;;;5070517;28;20417;-56
2022/09/10 01:12:11;;;;;;;10.30;8.85;;;14.70;99.90;;;;;;5072501;28;20363;-56
2022/09/10 01:15:00;;;;;;;9.82;8.70;;;14.70;99.90;;;;;;5071549;28;20064;-56
2022/09/10 01:17:32;;;;;;;10.98;8.02;;;14.60;99.90;;;;;;5065504;28;20045;-56
2022/09/10 01:20:01;;;;;;;11.05;9.90;;;14.70;99.90;;;;;;5072131;28;20037;-56
2022/09/10 01:22:42;;;;;;;10.93;9.00;;;14.70;99.90;;;;;;5071605;28;20054;-60
2022/09/10 01:25:36;;;;;;;11.85;8.93;;;14.70;99.90;;;;;;5053275;28;20084;-58
2022/09/10 01:28:07;;;;;;;13.95;10.23;;;14.70;99.90;;;;;;5058763;28;20041;-56
2022/09/10 01:30:44;;;;;;;10.85;8.82;;;14.70;99.90;;;;;;5053361;28;20414;-58
2022/09/10 01:33:25;;;;;;;12.05;9.70;;;14.70;99.90;;;;;;5071576;28;20414;-58
2022/09/10 01:36:01;;;;;;;12.02;9.10;;;14.70;99.90;;;;;;5063424;28;20041;-59
2022/09/10 01:38:32;;;;;;;16.17;9.63;;;14.70;99.90;;;;;;5060811;28;20041;-57
2022/09/10 01:40:58;;;;;;;12.60;8.82;;;14.70;99.90;;;;;;5073618;28;20040;-58
2022/09/10 01:43:24;;;;;;;12.32;9.82;;;14.80;99.90;;;;;;5074729;28;20043;-57
2022/09/10 01:46:05;;;;;;;12.38;10.40;;;14.80;99.90;;;;;;5075342;28;20041;-59
2022/09/10 01:48:48;;;;;;;15.77;9.73;;;14.80;99.90;;;;;;5075309;28;20043;-56
2022/09/10 01:51:50;;;;;;;16.00;10.50;;;14.80;99.90;;;;;;5075328;28;20132;-56
2022/09/10 01:54:55;;;;;;;12.00;8.73;;;14.80;99.90;;;;;;5063226;28;20084;-56
2022/09/10 01:57:26;;;;;;;10.95;8.77;;;14.80;99.90;;;;;;5056964;28;20088;-56
2022/09/10 01:59:58;;;;;;;13.15;9.63;;;14.90;99.90;;;;;;5074794;28;20504;-56
2022/09/10 02:02:31;;;;;;;12.63;9.82;;;14.90;99.90;;;;;;5074751;28;20053;-56
2022/09/10 02:04:59;;;;;;;11.43;9.73;;;14.90;99.90;;;;;;5074713;28;20452;-56
2022/09/10 02:07:26;;;;;;;13.95;10.77;;;14.90;99.90;;;;;;5074949;28;20558;-56
2022/09/10 02:09:53;;;;;;;17.95;10.85;;;14.90;99.90;;;;;;5056922;28;20032;-56
2022/09/10 02:12:21;;;;;;;13.43;10.90;;;14.90;99.90;;;;;;5074483;28;20062;-56
2022/09/10 02:14:49;;;;;;;12.02;9.63;;;14.90;99.90;;;;;;5074542;28;20512;-56
2022/09/10 02:17:15;;;;;;;11.13;9.25;;;15.00;99.90;;;;;;5068608;28;20029;-56
2022/09/10 02:19:44;;;;;;;11.90;9.65;;;15.00;99.90;;;;;;5073910;28;20131;-56
2022/09/10 02:22:09;;;;;;;13.27;10.68;;;15.00;99.90;;;;;;5074213;28;20083;-56
2022/09/10 02:24:35;;;;;;;13.32;11.73;;;15.00;99.90;;;;;;5074826;28;20083;-56
2022/09/10 02:27:01;;;;;;;14.82;11.50;;;15.00;99.90;;;;;;5074454;28;20045;-56
2022/09/10 02:29:27;;;;;;;16.10;11.77;;;15.00;99.90;;;;;;5074111;28;20060;-56
2022/09/10 02:31:52;;;;;;;12.98;11.27;;;15.00;99.90;;;;;;5074666;28;20469;-56
2022/09/10 02:34:19;;;;;;;15.50;11.65;;;15.00;99.90;;;;;;5055712;28;20400;-56
2022/09/10 02:36:45;;;;;;;14.18;12.18;;;15.00;99.90;;;;;;5072438;28;20045;-56
2022/09/10 02:39:11;;;;;;;14.77;12.23;;;15.00;99.90;;;;;;5070045;28;20044;-56
2022/09/10 02:41:39;;;;;;;15.95;12.93;;;15.00;99.90;;;;;;5073193;28;20041;-56
2022/09/10 02:44:05;;;;;;;14.02;12.43;;;15.10;99.90;;;;;;5074184;28;20076;-56
2022/09/10 02:46:31;;;;;;;17.90;12.38;;;14.90;99.90;;;;;;5074346;28;20141;-56
2022/09/10 02:48:57;;;;;;;19.70;12.32;;;15.00;99.90;;;;;;5064686;28;20391;-56
2022/09/10 02:51:23;;;;;;;16.05;13.68;;;15.00;99.90;;;;;;5070495;28;20173;-56
2022/09/10 02:53:49;;;;;;;16.08;12.70;;;14.90;99.90;;;;;;5073047;28;20119;-56
2022/09/10 02:56:16;;;;;;;15.77;13.27;;;15.00;99.90;;;;;;5073889;28;20119;-56
2022/09/10 02:58:42;;;;;;;15.13;13.32;;;15.00;99.90;;;;;;5072945;28;20049;-56
2022/09/10 03:01:13;;;;;;;17.60;12.70;;;15.00;99.90;;;;;;5073173;28;20517;-56
2022/09/10 03:03:39;;;;;;;14.50;12.15;;;15.00;99.90;;;;;;5073281;28;20505;-56
2022/09/10 03:06:08;;;;;;;16.55;12.48;;;15.00;99.90;;;;;;5073703;28;20070;-56
2022/09/10 03:08:34;;;;;;;17.33;13.93;;;15.00;99.90;;;;;;5073918;28;20044;-56
2022/09/10 03:11:00;;;;;;;17.75;13.50;;;15.00;99.90;;;;;;5073510;28;20468;-56
2022/09/10 03:13:26;;;;;;;20.23;13.95;;;15.10;99.90;;;;;;5073358;28;20049;-56
2022/09/10 03:15:54;;;;;;;19.58;13.63;;;15.00;99.90;;;;;;5073534;28;20051;-56
2022/09/10 03:18:21;;;;;;;20.50;16.13;;;15.10;99.90;;;;;;5064686;28;20447;-56
2022/09/10 03:20:48;;;;;;;19.98;16.50;;;15.10;99.90;;;;;;5065408;28;20044;-56
2022/09/10 03:23:14;;;;;;;23.38;16.55;;;15.10;99.90;;;;;;5073404;28;20108;-56
2022/09/10 03:25:40;;;;;;;22.85;16.05;;;15.10;99.90;;;;;;5073523;28;20482;-56
2022/09/10 03:28:06;;;;;;;20.13;15.65;;;15.10;99.90;;;;;;5073386;28;20055;-55
2022/09/10 03:30:31;;;;;;;20.52;15.05;;;15.10;99.90;;;;;;5055069;28;20091;-56
2022/09/10 03:32:57;;;;;;;16.90;14.43;;;15.10;99.90;;;;;;5072251;28;20059;-56
2022/09/10 03:35:23;;;;;;;18.50;13.95;;;15.10;99.90;;;;;;5079097;28;20101;-56
2022/09/10 03:37:49;;;;;;;21.10;15.35;;;15.10;99.90;;;;;;5061420;28;20072;-56
2022/09/10 03:40:15;;;;;;;25.33;16.52;;;15.10;99.90;;;;;;5073181;28;20040;-56
2022/09/10 03:42:41;;;;;;;21.42;15.68;;;15.10;99.90;;;;;;5071614;28;20425;-56
2022/09/10 03:45:07;;;;;;;20.02;15.63;;;15.10;99.90;;;;;;5072651;28;20055;-56
2022/09/10 03:47:36;;;;;;;20.58;13.93;;;15.10;99.90;;;;;;5072138;28;20367;-56
2022/09/10 03:50:02;;;;;;;17.80;15.38;;;15.10;99.90;;;;;;5072861;28;20469;-56
2022/09/10 03:52:28;;;;;;;24.08;15.77;;;15.20;99.90;;;;;;5071905;28;20131;-56
2022/09/10 03:54:55;;;;;;;17.42;13.32;;;15.10;99.90;;;;;;5072241;28;20170;-56
2022/09/10 03:57:21;;;;;;;23.85;16.17;;;15.10;99.90;;;;;;5072519;28;20056;-57
2022/09/10 03:59:47;;;;;;;19.65;15.00;;;15.10;99.90;;;;;;5072646;28;20449;-61
2022/09/10 04:02:16;;;;;;;24.40;15.80;;;15.10;99.90;;;;;;5072639;28;20124;-63
2022/09/10 04:04:41;;;;;;;19.33;14.80;;;15.10;99.90;;;;;;5058899;28;20132;-61
2022/09/10 04:07:09;;;;;;;18.80;15.35;;;15.20;99.90;;;;;;5071526;28;20131;-63
2022/09/10 04:09:35;;;;;;;20.08;15.07;;;15.20;99.90;;;;;;5072807;28;20036;-63
2022/09/10 04:12:02;;;;;;;23.77;16.42;;;15.20;99.90;;;;;;5072408;28;20371;-63
2022/09/10 04:14:28;;;;;;;21.42;14.98;;;15.20;99.90;;;;;;5072297;28;20098;-63
2022/09/10 04:16:57;;;;;;;26.83;16.88;;;15.10;99.90;;;;;;5069109;28;20377;-63
2022/09/10 04:19:23;;;;;;;22.17;15.13;;;15.10;99.90;;;;;;5069699;28;20371;-63
2022/09/10 04:21:51;;;;;;;18.27;15.10;;;15.20;99.90;;;;;;5071598;28;20047;-62
2022/09/10 04:24:17;;;;;;;25.50;15.43;;;15.20;99.90;;;;;;5053927;28;20121;-60
2022/09/10 04:26:42;;;;;;;24.58;15.38;;;15.10;99.90;;;;;;5054135;28;20048;-58
2022/09/10 04:29:08;;;;;;;22.05;16.73;;;15.10;99.90;;;;;;5071942;28;20135;-63
2022/09/10 04:31:34;;;;;;;21.10;14.88;;;15.10;99.90;;;;;;5072161;28;20490;-62
2022/09/10 04:34:00;;;;;;;23.45;15.32;;;15.10;99.90;;;;;;5071991;28;20436;-60
2022/09/10 04:36:27;;;;;;;24.08;15.13;;;15.10;99.90;;;;;;5073160;28;20049;-58
2022/09/10 04:38:52;;;;;;;19.80;15.57;;;15.10;99.90;;;;;;5065299;28;20045;-63
2022/09/10 04:41:18;;;;;;;20.38;15.25;;;15.10;99.90;;;;;;5060437;28;20121;-59
2022/09/10 04:43:45;;;;;;;20.52;16.35;;;15.10;99.90;;;;;;5071957;28;20041;-63
2022/09/10 04:46:11;;;;;;;31.98;17.23;;;15.10;99.90;;;;;;5072397;28;20032;-64
2022/09/10 04:48:37;;;;;;;19.00;15.38;;;15.10;99.90;;;;;;5071372;28;20044;-63
2022/09/10 04:51:03;;;;;;;21.65;16.77;;;15.10;99.90;;;;;;5072027;28;20041;-63
2022/09/10 04:53:30;;;;;;;22.92;14.98;;;15.20;99.90;;;;;;5071851;28;20575;-63
2022/09/10 04:55:56;;;;;;;20.38;15.50;;;15.20;99.90;;;;;;5071968;28;20052;-60
2022/09/10 04:58:22;;;;;;;20.90;16.00;;;15.20;99.90;;;;;;5072102;28;20072;-64
2022/09/10 05:00:48;;;;;;;18.10;14.05;;;15.20;99.90;;;;;;5071932;28;20075;-63
2022/09/10 05:03:13;;;;;;;18.85;14.65;;;15.20;99.90;;;;;;5071299;28;20060;-63
2022/09/10 05:05:41;;;;;;;19.88;14.32;;;15.30;99.90;;;;;;5053777;28;20563;-57
2022/09/10 05:08:07;;;;;;;18.83;14.68;;;15.20;99.90;;;;;;5072142;28;20041;-57
2022/09/10 05:10:35;;;;;;;27.25;16.20;;;15.20;99.90;;;;;;5072061;28;20043;-57
2022/09/10 05:13:01;;;;;;;20.65;14.80;;;15.20;99.90;;;;;;5071438;28;20044;-58
2022/09/10 05:15:27;;;;;;;18.00;13.93;;;15.20;99.90;;;;;;5072031;28;20049;-59
2022/09/10 05:17:52;;;;;;;18.63;14.85;;;15.20;99.90;;;;;;5075519;28;20101;-58
2022/09/10 05:20:18;;;;;;;16.35;13.82;;;15.20;99.90;;;;;;5075951;28;20082;-63
2022/09/10 05:22:44;;;;;;;20.83;15.15;;;15.20;99.90;;;;;;5075940;28;20045;-57
2022/09/10 05:25:10;;;;;;;21.60;14.05;;;15.30;99.90;;;;;;5075427;28;20059;-58
2022/09/10 05:27:36;;;;;;;17.58;13.95;;;15.30;99.90;;;;;;5075750;28;20056;-57
2022/09/10 05:30:02;;;;;;;18.05;14.75;;;15.30;99.90;;;;;;5075034;28;20479;-56
2022/09/10 05:32:28;;;;;;;18.30;12.65;;;15.30;99.90;;;;;;5074910;28;20063;-56
2022/09/10 05:34:54;;;;;;;19.67;14.38;;;15.40;99.90;;;;;;5078261;28;20066;-56
2022/09/10 05:37:20;;;;;;;18.38;13.55;;;15.30;99.90;;;;;;5066508;28;20048;-56
2022/09/10 05:39:48;;;;;;;15.82;13.38;;;15.40;99.90;;;;;;5057464;28;20041;-56
2022/09/10 05:42:14;;;;;;;18.23;13.98;;;15.40;99.90;;;;;;5075050;28;20101;-56
2022/09/10 05:44:40;;;;;;;16.75;14.27;;;15.50;99.90;;;;;;5075324;28;20040;-56
2022/09/10 05:47:07;;;;;;;20.40;14.05;;;15.50;99.90;;;;;;5074835;28;20497;-56
2022/09/10 05:49:33;;;;;;;20.17;14.27;;;15.50;99.90;;;;;;5075315;28;20051;-56
2022/09/10 05:51:58;;;;;;;16.48;12.65;;;15.60;99.90;;;;;;5074610;28;20041;-56
2022/09/10 05:54:24;;;;;;;20.55;13.82;;;15.60;99.90;;;;;;5074912;28;20037;-56
2022/09/10 05:56:50;;;;;;;15.73;12.27;;;15.60;99.90;;;;;;5074584;28;20482;-56
2022/09/10 05:59:16;;;;;;;21.65;14.27;;;15.60;99.90;;;;;;5074991;28;20214;-56
2022/09/10 06:01:41;;;;;;;15.65;12.63;;;15.60;99.90;;;;;;5071310;28;20047;-56
2022/09/10 06:04:09;;;;;;;15.35;13.63;;;15.60;99.90;;;;;;5070056;28;20062;-58
2022/09/10 06:06:35;;;;;;;17.30;13.25;;;15.70;99.90;;;;;;5071481;28;20048;-57
2022/09/10 06:09:01;;;;;;;16.08;13.32;;;15.80;99.90;;;;;;5071492;28;20192;-60
2022/09/10 06:11:26;;;;;;;16.92;13.35;;;15.80;99.90;;;;;;5071273;28;20126;-57
2022/09/10 06:13:52;;;;;;;16.42;13.10;;;15.80;99.90;;;;;;5070981;28;20075;-57
2022/09/10 06:16:18;;;;;;;17.70;13.38;;;15.90;99.90;;;;;;5067331;28;20071;-56
2022/09/10 06:18:44;;;;;;;19.45;13.95;;;15.90;99.90;;;;;;5070182;28;20135;-60
2022/09/10 06:21:18;;;;;;;19.30;15.45;;;16.00;99.90;;;;;;5070959;28;20044;-62
2022/09/10 06:23:43;;;;;;;;;;;16.00;99.90;;;;;;5054790;28;20040;-62
2022/09/10 06:26:12;;;;;;;15.60;12.45;;;16.00;99.90;;;;;;5069799;28;20652;-62
2022/09/10 06:28:38;;;;;;;19.05;13.38;;;16.00;99.90;;;;;;5068927;28;20071;-59
2022/09/10 06:31:06;;;;;;;16.98;13.90;;;16.10;99.90;;;;;;5069925;28;20545;-63
2022/09/10 06:33:33;;;;;;;20.13;12.90;;;16.10;99.90;;;;;;5069758;28;20410;-63
2022/09/10 06:36:00;;;;;;;15.68;14.00;;;16.10;99.90;;;;;;5075304;28;20123;-62
2022/09/10 06:38:32;;;;;;;17.80;13.68;;;16.20;99.90;;;;;;5056639;28;20047;-56
2022/09/10 06:41:00;;;;;;;24.95;15.25;;;16.20;99.90;;;;;;5059465;28;20056;-56
2022/09/10 06:43:27;;;;;;;19.55;14.10;;;16.20;99.90;;;;;;5059752;28;20041;-56
2022/09/10 06:45:53;;;;;;;20.45;14.52;;;16.20;99.90;;;;;;5060472;28;20040;-56
2022/09/10 06:48:26;;;;;;;22.15;14.18;;;16.10;99.90;;;;;;5060179;28;20045;-56
2022/09/10 06:50:57;;;;;;;20.80;13.87;;;16.20;99.90;;;;;;5040952;28;20060;-56
2022/09/10 06:53:24;;;;;;;20.05;14.70;;;16.10;99.90;;;;;;5059137;28;20490;-56
2022/09/10 06:55:51;;;;;;;20.05;14.57;;;16.10;99.90;;;;;;5058918;28;20043;-56
2022/09/10 06:58:23;;;;;;;22.02;16.00;;;16.20;99.90;;;;;;5062577;28;20124;-56
2022/09/10 07:00:49;;;;;;;22.15;16.48;;;16.10;99.90;;;;;;5061702;28;20046;-56
2022/09/10 07:03:17;;;;;;;24.15;15.88;;;16.10;99.90;;;;;;5062746;28;20067;-56
2022/09/10 07:05:44;;;;;;;22.48;16.45;;;16.20;99.90;;;;;;5063371;28;20041;-56
2022/09/10 07:08:14;;;;;;;24.08;14.27;;;16.10;99.90;;;;;;5067659;28;20076;-56
2022/09/10 07:10:42;;;;;;;19.63;14.40;;;16.20;99.90;;;;;;5065460;28;20112;-56
2022/09/10 07:13:08;;;;;;;23.75;16.27;;;16.30;99.90;;;;;;5071952;28;20032;-56
2022/09/10 07:15:35;;;;;;;18.13;16.13;;;16.30;99.90;;;;;;5071311;28;20040;-56
2022/09/10 07:18:00;;;;;;;20.83;15.13;;;16.40;99.90;;;;;;5057704;28;20036;-56
2022/09/10 07:20:28;;;;;;;19.65;15.65;;;16.50;99.90;;;;;;5051852;28;20053;-56
2022/09/10 07:22:57;;;;;;;20.65;15.90;;;16.60;99.90;;;;;;5055545;28;20076;-58
2022/09/10 07:25:25;;;;;;;23.15;15.05;;;16.50;99.90;;;;;;5066655;28;20125;-57
2022/09/10 07:27:52;;;;;;;19.92;14.68;;;16.50;99.90;;;;;;5055112;28;20048;-60
2022/09/10 07:30:21;;;;;;;18.83;13.95;;;16.50;99.90;;;;;;5051403;28;20049;-59
2022/09/10 07:32:48;;;;;;;21.55;15.60;;;16.60;99.90;;;;;;5054678;28;20091;-58
2022/09/10 07:35:15;;;;;;;22.17;13.90;;;16.60;99.90;;;;;;5064913;28;20468;-59
2022/09/10 07:37:40;;;;;;;18.75;14.70;;;16.60;99.90;;;;;;5067997;28;20037;-58
2022/09/10 07:40:07;;;;;;;19.95;15.70;;;16.80;99.90;;;;;;5064947;28;20060;-62
2022/09/10 07:42:34;;;;;;;24.98;15.85;;;16.90;99.90;;;;;;5071385;28;20080;-60
2022/09/10 07:45:00;;;;;;;19.08;14.48;;;16.90;99.90;;;;;;5066887;28;20052;-60
2022/09/10 07:47:26;;;;;;;20.33;13.45;;;16.90;99.90;;;;;;5068791;28;20120;-61
2022/09/10 07:49:51;;;;;;;21.88;14.15;;;16.90;99.90;;;;;;5066909;28;20047;-57
2022/09/10 07:52:17;;;;;;;18.95;14.88;;;16.90;99.90;;;;;;5070074;28;20394;-58
2022/09/10 07:54:43;;;;;;;21.88;15.30;;;17.00;99.90;;;;;;5071442;28;20466;-61
2022/09/10 07:57:09;;;;;;;22.63;15.07;;;17.10;99.90;;;;;;5071045;28;20048;-61
2022/09/10 07:59:34;;;;;;;16.77;13.40;;;17.20;99.90;;;;;;5071318;28;20051;-61
2022/09/10 08:02:00;;;;;;;26.90;15.43;;;17.20;99.90;;;;;;5071735;28;20048;-61
2022/09/10 08:04:29;;;;;;;16.52;13.25;;;17.30;99.90;;;;;;5053730;28;20436;-63
2022/09/10 08:06:55;;;;;;;20.13;13.48;;;17.40;99.90;;;;;;5071260;28;20051;-63
2022/09/10 08:09:21;;;;;;;18.13;14.07;;;17.50;99.90;;;;;;5070680;28;20049;-62
2022/09/10 08:11:47;;;;;;;20.83;13.80;;;17.50;99.90;;;;;;5068976;28;20313;-56
2022/09/10 08:14:12;;;;;;;22.13;13.35;;;17.50;99.90;;;;;;5071142;28;20394;-56
2022/09/10 08:16:38;;;;;;;18.17;13.23;;;17.50;99.90;;;;;;5070929;28;20105;-56
2022/09/10 08:19:04;;;;;;;13.80;11.50;;;17.70;99.90;;;;;;5066767;28;20067;-56
2022/09/10 08:21:31;;;;;;;16.55;13.50;;;17.80;99.90;;;;;;5072104;28;20052;-56
2022/09/10 08:23:57;;;;;;;18.23;14.13;;;18.00;99.90;;;;;;5072024;28;20047;-56
2022/09/10 08:26:24;;;;;;;15.55;12.10;;;18.10;99.90;;;;;;5071261;28;20405;-57
2022/09/10 08:28:50;;;;;;;18.13;12.48;;;18.30;99.90;;;;;;5071235;28;20063;-56
2022/09/10 08:31:16;;;;;;;16.45;12.40;;;18.30;99.90;;;;;;5063955;28;20072;-56
2022/09/10 08:33:47;;;;;;;17.65;13.60;;;18.40;99.90;;;;;;5063468;28;20107;-56
2022/09/10 08:36:15;;;;;;;16.50;12.10;;;18.50;99.90;;;;;;5066403;28;20478;-56
2022/09/10 08:38:41;;;;;;;21.48;13.35;;;18.50;99.90;;;;;;5054125;28;20097;-56
2022/09/10 08:41:45;;;;;;;16.35;12.63;;;18.70;99.90;;;;;;5071485;28;20048;-56
2022/09/10 08:44:26;;;;;;;17.15;12.75;;;18.60;99.90;;;;;;5054926;28;20041;-56
2022/09/10 08:47:16;;;;;;;19.27;12.82;;;18.50;99.90;;;;;;5071945;28;20146;-56
2022/09/10 08:49:50;;;;;;;21.50;12.63;;;18.50;99.90;;;;;;5055659;28;20132;-56
2022/09/10 08:52:20;;;;;;;16.23;11.73;;;18.50;99.90;;;;;;5071242;28;20047;-56
2022/09/10 08:55:10;;;;;;;16.20;13.27;;;18.30;99.90;;;;;;5070973;28;20048;-56
2022/09/10 08:57:46;;;;;;;17.50;11.80;;;18.50;99.90;;;;;;5072172;28;20045;-56
2022/09/10 09:00:16;;;;;;;17.63;12.57;;;18.50;99.90;;;;;;5068959;28;20429;-56
2022/09/10 09:02:51;;;;;;;16.45;11.85;;;18.50;99.90;;;;;;5065469;28;20118;-56
2022/09/10 09:05:19;;;;;;;19.85;12.75;;;18.60;99.90;;;;;;5066107;28;20041;-63
2022/09/10 09:07:47;;;;;;;18.05;12.20;;;18.30;99.90;;;;;;5065364;28;20040;-62
2022/09/10 09:10:21;;;;;;;15.50;12.63;;;18.20;99.90;;;;;;5064751;28;20498;-62
2022/09/10 09:13:09;;;;;;;20.15;12.55;;;18.30;99.90;;;;;;5066528;28;20049;-63
2022/09/10 09:15:55;;;;;;;14.63;12.00;;;18.30;99.90;;;;;;5071375;28;20075;-64
2022/09/10 09:18:43;;;;;;;17.42;12.23;;;18.20;99.90;;;;;;5051718;28;20048;-63
2022/09/10 09:21:34;;;;;;;15.77;11.98;;;18.30;99.90;;;;;;5071542;28;20071;-61
2022/09/10 09:24:06;;;;;;;14.35;10.43;;;18.40;99.90;;;;;;5068789;28;20036;-60
2022/09/10 09:26:35;;;;;;;14.38;12.25;;;18.40;99.90;;;;;;5070762;28;20067;-61
2022/09/10 09:29:04;;;;;;;14.13;10.57;;;18.50;99.90;;;;;;5070827;28;20062;-61
2022/09/10 09:31:36;;;;;;;12.98;10.25;;;18.40;99.90;;;;;;5070999;28;20033;-56
2022/09/10 09:34:18;;;;;;;13.00;9.77;;;18.50;99.90;;;;;;5070908;28;20044;-56
2022/09/10 09:36:57;;;;;;;10.80;8.57;;;18.40;99.90;;;;;;5071494;28;20045;-56
2022/09/10 09:39:29;;;;;;;14.88;11.80;;;18.40;99.90;;;;;;5070762;28;20045;-56
2022/09/10 09:42:37;;;;;;;11.82;9.23;;;18.40;99.90;;;;;;5070870;28;20055;-56
2022/09/10 09:45:27;;;;;;;10.48;8.38;;;18.30;99.90;;;;;;5060560;28;20049;-56
2022/09/10 09:47:53;;;;;;;9.25;7.63;;;18.30;99.90;;;;;;5060912;28;20107;-56
2022/09/10 09:50:19;;;;;;;10.93;8.00;;;18.20;99.90;;;;;;5071090;28;20043;-57
2022/09/10 09:52:46;;;;;;;10.32;9.13;;;18.30;99.90;;;;;;5070614;28;20093;-56
2022/09/10 09:55:34;;;;;;;12.02;9.95;;;18.30;99.90;;;;;;5065513;28;20116;-56
2022/09/10 09:58:25;;;;;;;10.98;8.68;;;18.40;99.90;;;;;;5065626;28;20530;-56
2022/09/10 10:01:03;;;;;;;12.30;9.88;;;18.70;99.90;;;;;;5053322;28;20421;-56
2022/09/10 10:03:31;;;;;;;14.95;10.00;;;18.60;99.90;;;;;;5073192;28;20055;-56
2022/09/10 10:06:06;;;;;;;14.15;10.98;;;18.80;99.90;;;;;;5074246;28;20037;-56
2022/09/10 10:08:53;;;;;;;15.82;9.55;;;18.80;99.90;;;;;;5074871;28;20048;-56
2022/09/10 10:11:20;;;;;;;13.48;9.27;;;19.00;99.90;;;;;;5074498;28;20041;-56
2022/09/10 10:13:50;;;;;;;12.65;9.63;;;19.20;99.90;;;;;;5049166;28;20072;-56
2022/09/10 10:16:34;;;;;;;12.98;9.38;;;19.30;99.90;;;;;;5046988;28;20048;-56
2022/09/10 10:19:00;;;;;;;11.25;9.38;;;19.60;99.90;;;;;;5068660;28;20116;-56
2022/09/10 10:21:31;;;;;;;13.30;10.30;;;19.70;99.90;;;;;;5055652;28;20152;-56
2022/09/10 10:23:57;;;;;;;14.25;10.55;;;19.80;99.90;;;;;;5074419;28;20032;-56
2022/09/10 10:26:27;;;;;;;11.05;9.27;;;19.70;99.90;;;;;;5067483;28;20379;-56
2022/09/10 10:29:16;;;;;;;11.80;10.02;;;19.70;99.90;;;;;;5073949;28;20052;-56
2022/09/10 10:31:44;;;;;;;12.48;9.18;;;19.70;99.90;;;;;;5073406;28;20051;-57
2022/09/10 10:34:15;;;;;;;12.32;9.88;;;19.70;99.90;;;;;;5074189;28;20037;-56
2022/09/10 10:37:06;;;;;;;12.68;9.18;;;19.80;99.90;;;;;;5073536;28;20506;-56
2022/09/10 10:39:42;;;;;;;11.90;9.73;;;19.80;99.90;;;;;;5073927;28;20055;-56
2022/09/10 10:42:33;;;;;;;10.45;8.18;;;19.90;99.90;;;;;;5072595;28;20079;-56
2022/09/10 10:45:31;;;;;;;12.43;9.77;;;20.10;99.90;;;;;;5074060;28;20052;-56
2022/09/10 10:48:02;;;;;;;11.65;8.55;;;20.40;99.90;;;;;;5035415;28;20546;-56
2022/09/10 10:50:48;;;;;;;13.80;9.73;;;20.50;99.90;;;;;;5073190;28;20059;-56
2022/09/10 10:53:26;;;;;;;14.82;10.02;;;20.30;99.90;;;;;;5053373;28;20106;-56
2022/09/10 10:56:03;;;;;;;14.93;9.15;;;19.80;99.90;;;;;;5057543;28;20474;-56
2022/09/10 10:58:47;;;;;;;11.85;8.93;;;20.00;99.90;;;;;;5073519;28;20087;-57
2022/09/10 11:01:24;;;;;;;13.25;8.15;;;19.90;99.90;;;;;;5073187;28;20115;-56
2022/09/10 11:04:42;;;;;;;11.00;7.90;;;20.20;99.90;;;;;;5058271;28;20044;-57
2022/09/10 11:07:13;;;;;;;10.85;8.90;;;20.50;99.90;;;;;;5040012;28;20056;-56
2022/09/10 11:10:14;;;;;;;12.70;9.40;;;20.70;99.90;;;;;;5073908;28;20394;-57
2022/09/10 11:12:54;;;;;;;13.00;9.55;;;20.80;99.90;;;;;;5073372;28;20045;-57
2022/09/10 11:15:45;;;;;;;13.32;8.65;;;20.80;99.90;;;;;;5073491;28;20048;-56
2022/09/10 11:18:26;;;;;;;11.93;8.07;;;21.10;99.90;;;;;;5064076;28;20470;-56
2022/09/10 11:20:51;;;;;;;9.35;7.93;;;21.10;99.90;;;;;;5073412;28;20041;-56
2022/09/10 11:23:45;;;;;;;9.82;7.53;;;21.10;99.90;;;;;;5072750;28;20048;-56
2022/09/10 11:26:42;;;;;;;9.23;6.60;;;21.20;99.90;;;;;;5060841;28;20386;-57
2022/09/10 11:29:42;;;;;;;10.93;8.00;;;21.60;99.90;;;;;;5056957;28;20132;-56
2022/09/10 11:32:20;;;;;;;8.43;6.80;;;21.60;99.90;;;;;;5059871;28;20486;-56
2022/09/10 11:35:13;;;;;;;9.48;7.72;;;22.00;99.90;;;;;;5074872;28;20083;-57
2022/09/10 11:37:53;;;;;;;10.93;7.75;;;22.70;99.90;;;;;;5061766;28;20548;-57
2022/09/10 11:40:41;;;;;;;13.00;8.73;;;23.50;99.90;;;;;;5073138;28;20078;-56
2022/09/10 11:43:13;;;;;;;11.32;8.10;;;23.60;99.90;;;;;;5072646;28;20029;-57
2022/09/10 11:45:56;;;;;;;11.48;8.25;;;23.90;99.90;;;;;;5072577;28;20036;-56
2022/09/10 11:48:38;;;;;;;10.55;8.95;;;24.30;99.90;;;;;;5073162;28;20067;-57
2022/09/10 11:51:10;;;;;;;9.20;7.95;;;24.50;99.90;;;;;;5072975;28;20049;-57
2022/09/10 11:53:37;;;;;;;10.52;7.22;;;24.70;99.90;;;;;;5072105;28;20045;-57
2022/09/10 11:56:11;;;;;;;9.40;7.43;;;25.00;99.90;;;;;;5073009;28;20040;-57
2022/09/10 11:59:28;;;;;;;10.70;6.72;;;24.80;99.90;;;;;;5072853;28;20048;-57
2022/09/10 12:02:21;;;;;;;10.57;6.43;;;24.80;99.90;;;;;;5023374;28;20049;-57
2022/09/10 12:05:01;;;;;;;6.15;5.55;;;24.90;99.90;;;;;;5072511;28;20401;-57
2022/09/10 12:07:39;;;;;;;8.85;7.15;;;25.10;99.90;;;;;;5072446;28;20049;-57
2022/09/10 12:10:31;;;;;;;6.97;6.28;;;25.60;99.90;;;;;;5072852;28;20036;-57
2022/09/10 12:12:57;;;;;;;10.13;6.53;;;25.70;99.90;;;;;;5072128;28;20063;-57
2022/09/10 12:15:25;;;;;;;10.52;7.72;;;26.20;99.90;;;;;;5072174;28;20048;-57
2022/09/10 12:18:20;;;;;;;11.25;7.53;;;26.40;99.90;;;;;;5068182;28;20072;-57
2022/09/10 12:20:55;;;;;;;10.55;7.45;;;26.60;99.90;;;;;;5072461;28;20498;-57
2022/09/10 12:23:31;;;;;;;7.40;6.38;;;26.70;99.90;;;;;;5071601;28;20418;-57
2022/09/10 12:26:10;;;;;;;7.55;6.35;;;26.50;99.90;;;;;;5071588;28;20037;-57
2022/09/10 12:28:48;;;;;;;6.53;5.70;;;26.50;99.90;;;;;;5072282;28;20049;-57
2022/09/10 12:31:16;;;;;;;7.03;5.97;;;26.70;99.90;;;;;;5072165;28;20058;-57
2022/09/10 12:33:42;;;;;;;6.47;5.10;;;26.00;99.90;;;;;;5069788;28;20044;-57
2022/09/10 12:36:09;;;;;;;6.53;5.63;;;26.60;99.90;;;;;;5066385;28;20051;-58
2022/09/10 12:39:14;;;;;;;7.68;5.60;;;27.10;99.90;;;;;;5072436;28;20044;-57
2022/09/10 12:41:39;;;;;;;7.20;5.63;;;28.10;99.90;;;;;;5071051;28;20087;-57
2022/09/10 12:44:33;;;;;;;5.78;4.68;;;28.30;99.90;;;;;;5072649;28;20091;-57
2022/09/10 12:47:14;;;;;;;7.90;5.63;;;28.40;99.90;;;;;;5071989;28;20120;-57
2022/09/10 12:49:59;;;;;;;6.25;5.15;;;28.90;99.90;;;;;;5071720;28;20448;-57
2022/09/10 12:52:52;;;;;;;5.47;4.63;;;29.20;99.90;;;;;;5071132;28;20470;-57
2022/09/10 12:55:36;;;;;;;6.03;5.43;;;31.20;99.90;;;;;;5053608;28;20056;-58